Flight Track Log - Related Links

Times and Time Zones

All times are in EDT time to prevent confusion due to time zone crossing. See the TAM3893 flight status page for this flight to view local times or setup timezone preferences in your user account.

Time Position Orientation Groundspeed Altitude Reporting Facility
EDT Latitude Longitude Course Direction KTS MPH feet Rate Location/Type
Sun 06:31:00 AM -2.0671 -52.6241 81° East  Level Estimated
Sun 06:32:00 AM -2.0522 -52.5338 81° East  Level Estimated
Sun 06:33:00 AM -2.0373 -52.4435 81° East  Level Estimated
Sun 06:34:00 AM -2.0225 -52.3531 81° East  Level Estimated
Sun 06:35:00 AM -2.0076 -52.2628 81° East  Level Estimated
Sun 06:36:00 AM -1.9927 -52.1725 81° East  Level Estimated
Sun 06:37:00 AM -1.9778 -52.0821 81° East  Level Estimated
Sun 06:38:00 AM -1.9629 -51.9918 81° East  Level Estimated
Sun 06:39:00 AM -1.9480 -51.9015 81° East  Level Estimated
Sun 06:40:00 AM -1.9331 -51.8112 81° East  Level Estimated
Sun 06:41:00 AM -1.9181 -51.7209 81° East  Level Estimated
Sun 06:42:00 AM -1.9032 -51.6305 81° East  Level Estimated
Sun 06:43:00 AM -1.8883 -51.5402 81° East  Level Estimated
Sun 06:44:00 AM -1.8734 -51.4499 81° East  Level Estimated
Sun 06:45:00 AM -1.8584 -51.3596 81° East  Level Estimated
Sun 06:46:00 AM -1.8435 -51.2692 81° East  Level Estimated
Sun 06:47:00 AM -1.8285 -51.1789 81° East  Level Estimated
Sun 06:48:00 AM -1.8136 -51.0886 81° East  Level Estimated
Sun 06:49:00 AM -1.7986 -50.9983 81° East  Level Estimated
Sun 06:50:00 AM -1.7837 -50.9080 81° East  Level Estimated
Sun 06:51:00 AM -1.7687 -50.8177 81° East  Level Estimated
Sun 06:52:00 AM -1.7537 -50.7274 81° East  Level Estimated
Sun 06:53:00 AM -1.7388 -50.6371 81° East  Level Estimated
Sun 06:54:00 AM -1.7238 -50.5468 81° East  Level Estimated
Sun 06:55:00 AM -1.7088 -50.4565 81° East  Level Estimated
Sun 06:56:00 AM -1.6938 -50.3662 81° East  Level Estimated
Sun 06:57:00 AM -1.6788 -50.2759 81° East  Level Estimated
Sun 06:58:00 AM -1.6638 -50.1856 81° East  Level Estimated
Sun 06:59:00 AM -1.6488 -50.0953 81° East  Level Estimated
Sun 07:00:00 AM -1.6338 -50.0050 81° East  Level Estimated
Sun 07:01:00 AM -1.6188 -49.9147 81° East  Level Estimated
Sun 07:02:00 AM -1.6038 -49.8244 81° East  Level Estimated
Sun 07:03:00 AM -1.5888 -49.7341 81° East  Level Estimated
Sun 07:04:00 AM -1.5738 -49.6438 81° East  Level Estimated
Sun 07:05:00 AM -1.5588 -49.5535 81° East  Level Estimated
Sun 07:06:00 AM -1.5438 -49.4632 81° East  Level Estimated
Sun 07:07:00 AM -1.5287 -49.3730 81° East  Level Estimated
Sun 07:08:00 AM -1.5137 -49.2827 81° East  Level Estimated
Sun 07:09:00 AM -1.4986 -49.1924 81° East  Level Estimated
Sun 07:10:00 AM -1.4836 -49.1021 81° East  Level Estimated
Sun 07:11:00 AM -1.4686 -49.0118 81° East  Level Estimated
Sun 07:12:00 AM -1.4535 -48.9216 81° East  Level Estimated
Sun 07:13:00 AM -1.4385 -48.8313 81° East  Level Estimated
Sun 07:14:00 AM -1.4234 -48.7410 81° East  Level Estimated
Sun 07:15:00 AM -1.4083 -48.6507 81° East  Level Estimated
Sun 07:16:00 AM -1.3933 -48.5604 81° East  Level Estimated
Sun 07:17:00 AM -1.3793 -48.4763 81° East  Level Estimated
Sun 07:18:00 AM -1.3793 -48.4763 270° West  Level Estimated
Sun 07:19:00 AM -1.3793 -48.4763 270° West  Level Estimated
Sun 07:20:00 AM -1.3793 -48.4763 270° West  Level Estimated
Sun 07:21:00 AM -1.3793 -48.4763 270° West  Level Estimated
Sun 07:22:00 AM -1.3793 -48.4763 270° West  Level Estimated
Sun 07:23:00 AM -1.3793 -48.4763 270° West  Level Estimated
Sun 07:24:00 AM -1.3793 -48.4763 270° West  Level Estimated
Sun 07:25:00 AM -1.3793 -48.4763 270° West  Level Estimated
Sun 07:26:00 AM -1.3793 -48.4763 270° West  Level Estimated
Sun 07:27:00 AM -1.3793 -48.4763 270° West  Level Estimated
Sun 07:28:00 AM -1.3793 -48.4763 270° West  Level Estimated
Sun 07:29:00 AM -1.3793 -48.4763 270° West  Level Estimated
Sun 07:30:00 AM -1.3793 -48.4763 270° West  Level Estimated
Sun 07:31:00 AM -1.3793 -48.4763 270° West  Level Estimated

Login

Don't have an account? Register now (free) for customized features, flight alerts, and more!